sensor_id;sensor_type;location;lat;lon;timestamp;P1;durP1;ratioP1;P2;durP2;ratioP2
6693;SDS011;3384;42.628;23.380;2023-03-09T02:49:49;3.10;;;3.00;;
6693;SDS011;3384;42.628;23.380;2023-03-09T02:52:15;3.00;;;2.80;;
6693;SDS011;3384;42.628;23.380;2023-03-09T03:00:39;2.77;;;2.50;;
6693;SDS011;3384;42.628;23.380;2023-03-09T03:15:23;4.87;;;2.53;;
6693;SDS011;3384;42.628;23.380;2023-03-09T03:17:50;2.83;;;2.63;;
6693;SDS011;3384;42.628;23.380;2023-03-09T03:20:16;2.37;;;2.23;;
6693;SDS011;3384;42.628;23.380;2023-03-09T03:22:57;3.23;;;3.03;;
6693;SDS011;3384;42.628;23.380;2023-03-09T03:28:26;2.90;;;2.67;;
6693;SDS011;3384;42.628;23.380;2023-03-09T03:30:55;3.20;;;3.00;;
6693;SDS011;3384;42.628;23.380;2023-03-09T03:33:22;2.90;;;2.70;;
6693;SDS011;3384;42.628;23.380;2023-03-09T04:00:33;3.80;;;2.00;;
6693;SDS011;3384;42.628;23.380;2023-03-09T04:02:59;2.50;;;2.33;;
6693;SDS011;3384;42.628;23.380;2023-03-09T04:05:26;2.13;;;2.07;;
6693;SDS011;3384;42.628;23.380;2023-03-09T04:07:52;8.37;;;2.63;;
6693;SDS011;3384;42.628;23.380;2023-03-09T04:10:37;3.27;;;2.20;;
6693;SDS011;3384;42.628;23.380;2023-03-09T04:16:10;2.67;;;2.10;;
6693;SDS011;3384;42.628;23.380;2023-03-09T04:18:37;2.43;;;2.33;;
6693;SDS011;3384;42.628;23.380;2023-03-09T04:21:03;5.73;;;2.57;;
6693;SDS011;3384;42.628;23.380;2023-03-09T04:23:30;3.67;;;3.47;;
6693;SDS011;3384;42.628;23.380;2023-03-09T05:01:58;2.70;;;2.50;;
6693;SDS011;3384;42.628;23.380;2023-03-09T05:04:25;2.70;;;2.60;;
6693;SDS011;3384;42.628;23.380;2023-03-09T05:06:52;2.50;;;2.40;;
6693;SDS011;3384;42.628;23.380;2023-03-09T05:09:18;3.30;;;2.93;;
6693;SDS011;3384;42.628;23.380;2023-03-09T05:11:45;2.63;;;2.50;;
6693;SDS011;3384;42.628;23.380;2023-03-09T05:14:16;3.33;;;2.30;;
6693;SDS011;3384;42.628;23.380;2023-03-09T05:16:43;2.50;;;2.30;;
6693;SDS011;3384;42.628;23.380;2023-03-09T05:19:11;3.57;;;2.20;;
6693;SDS011;3384;42.628;23.380;2023-03-09T05:21:37;4.60;;;2.35;;
6693;SDS011;3384;42.628;23.380;2023-03-09T05:24:04;3.13;;;2.83;;
6693;SDS011;3384;42.628;23.380;2023-03-09T05:26:31;3.47;;;2.90;;
6693;SDS011;3384;42.628;23.380;2023-03-09T05:28:57;8.83;;;2.43;;
6693;SDS011;3384;42.628;23.380;2023-03-09T05:31:24;3.37;;;2.43;;
6693;SDS011;3384;42.628;23.380;2023-03-09T05:33:55;4.73;;;3.37;;
6693;SDS011;3384;42.628;23.380;2023-03-09T05:36:24;3.20;;;2.07;;
6693;SDS011;3384;42.628;23.380;2023-03-09T05:41:39;2.10;;;2.00;;
6693;SDS011;3384;42.628;23.380;2023-03-09T05:44:06;5.13;;;2.00;;
6693;SDS011;3384;42.628;23.380;2023-03-09T05:46:32;6.70;;;2.33;;
6693;SDS011;3384;42.628;23.380;2023-03-09T05:48:59;2.70;;;2.27;;
6693;SDS011;3384;42.628;23.380;2023-03-09T05:51:27;3.33;;;3.10;;
6693;SDS011;3384;42.628;23.380;2023-03-09T05:53:53;2.43;;;2.33;;
6693;SDS011;3384;42.628;23.380;2023-03-09T05:56:19;5.00;;;2.60;;
6693;SDS011;3384;42.628;23.380;2023-03-09T05:58:47;4.90;;;2.47;;
6693;SDS011;3384;42.628;23.380;2023-03-09T06:01:16;3.93;;;2.17;;
6693;SDS011;3384;42.628;23.380;2023-03-09T06:03:43;3.33;;;2.63;;
6693;SDS011;3384;42.628;23.380;2023-03-09T06:06:10;6.50;;;2.50;;
6693;SDS011;3384;42.628;23.380;2023-03-09T06:08:38;8.20;;;4.27;;
6693;SDS011;3384;42.628;23.380;2023-03-09T06:11:07;4.47;;;4.07;;
6693;SDS011;3384;42.628;23.380;2023-03-09T06:13:34;4.17;;;3.77;;
6693;SDS011;3384;42.628;23.380;2023-03-09T06:16:01;11.50;;;6.53;;
6693;SDS011;3384;42.628;23.380;2023-03-09T06:18:28;18.90;;;6.67;;
6693;SDS011;3384;42.628;23.380;2023-03-09T06:20:54;11.00;;;6.23;;
6693;SDS011;3384;42.628;23.380;2023-03-09T06:23:24;13.73;;;5.23;;
6693;SDS011;3384;42.628;23.380;2023-03-09T06:25:52;6.43;;;5.77;;
6693;SDS011;3384;42.628;23.380;2023-03-09T06:28:19;5.33;;;4.97;;
6693;SDS011;3384;42.628;23.380;2023-03-09T06:33:37;11.83;;;6.60;;
6693;SDS011;3384;42.628;23.380;2023-03-09T06:39:01;9.30;;;5.60;;
6693;SDS011;3384;42.628;23.380;2023-03-09T06:41:28;6.43;;;5.03;;
6693;SDS011;3384;42.628;23.380;2023-03-09T06:43:57;18.20;;;6.00;;
6693;SDS011;3384;42.628;23.380;2023-03-09T06:46:23;12.10;;;5.80;;
6693;SDS011;3384;42.628;23.380;2023-03-09T06:48:50;15.70;;;5.07;;
6693;SDS011;3384;42.628;23.380;2023-03-09T06:51:16;5.43;;;3.87;;
6693;SDS011;3384;42.628;23.380;2023-03-09T06:53:43;4.93;;;2.43;;
6693;SDS011;3384;42.628;23.380;2023-03-09T06:56:10;3.47;;;3.27;;
6693;SDS011;3384;42.628;23.380;2023-03-09T06:58:38;7.13;;;3.30;;
6693;SDS011;3384;42.628;23.380;2023-03-09T07:01:05;3.40;;;2.80;;
6693;SDS011;3384;42.628;23.380;2023-03-09T07:03:32;5.70;;;2.63;;
6693;SDS011;3384;42.628;23.380;2023-03-09T07:05:58;6.60;;;5.07;;
6693;SDS011;3384;42.628;23.380;2023-03-09T07:08:25;11.67;;;3.23;;
6693;SDS011;3384;42.628;23.380;2023-03-09T07:10:51;4.13;;;3.90;;
6693;SDS011;3384;42.628;23.380;2023-03-09T07:13:18;5.90;;;3.60;;
6693;SDS011;3384;42.628;23.380;2023-03-09T07:15:46;3.77;;;3.47;;
6693;SDS011;3384;42.628;23.380;2023-03-09T07:18:12;10.63;;;4.37;;
6693;SDS011;3384;42.628;23.380;2023-03-09T07:20:40;4.33;;;3.97;;
6693;SDS011;3384;42.628;23.380;2023-03-09T07:23:10;3.17;;;2.97;;
6693;SDS011;3384;42.628;23.380;2023-03-09T07:25:37;3.90;;;3.70;;
6693;SDS011;3384;42.628;23.380;2023-03-09T07:28:04;5.67;;;4.03;;
6693;SDS011;3384;42.628;23.380;2023-03-09T07:30:31;3.50;;;3.30;;
6693;SDS011;3384;42.628;23.380;2023-03-09T07:33:00;7.03;;;2.97;;
6693;SDS011;3384;42.628;23.380;2023-03-09T07:35:26;4.33;;;3.60;;
6693;SDS011;3384;42.628;23.380;2023-03-09T07:37:53;6.83;;;4.73;;
6693;SDS011;3384;42.628;23.380;2023-03-09T07:40:20;4.30;;;4.00;;
6693;SDS011;3384;42.628;23.380;2023-03-09T07:42:47;5.03;;;2.50;;
6693;SDS011;3384;42.628;23.380;2023-03-09T07:45:15;3.53;;;2.53;;
6693;SDS011;3384;42.628;23.380;2023-03-09T07:56:53;5.90;;;4.40;;
6693;SDS011;3384;42.628;23.380;2023-03-09T07:59:21;6.03;;;4.50;;
6693;SDS011;3384;42.628;23.380;2023-03-09T08:01:48;5.20;;;4.70;;
6693;SDS011;3384;42.628;23.380;2023-03-09T08:04:14;7.57;;;5.13;;
6693;SDS011;3384;42.628;23.380;2023-03-09T08:06:41;4.17;;;3.70;;
6693;SDS011;3384;42.628;23.380;2023-03-09T08:09:10;15.13;;;4.43;;
6693;SDS011;3384;42.628;23.380;2023-03-09T08:11:38;7.80;;;5.00;;
6693;SDS011;3384;42.628;23.380;2023-03-09T08:14:16;4.67;;;3.40;;
6693;SDS011;3384;42.628;23.380;2023-03-09T08:19:48;7.63;;;4.67;;
6693;SDS011;3384;42.628;23.380;2023-03-09T08:22:15;19.07;;;5.13;;
6693;SDS011;3384;42.628;23.380;2023-03-09T08:24:42;5.13;;;3.47;;
6693;SDS011;3384;42.628;23.380;2023-03-09T08:27:09;4.43;;;2.90;;
6693;SDS011;3384;42.628;23.380;2023-03-09T08:29:37;10.30;;;5.17;;
6693;SDS011;3384;42.628;23.380;2023-03-09T08:32:04;6.10;;;3.53;;
6693;SDS011;3384;42.628;23.380;2023-03-09T08:34:31;4.60;;;4.20;;
6693;SDS011;3384;42.628;23.380;2023-03-09T08:36:57;5.07;;;4.53;;
6693;SDS011;3384;42.628;23.380;2023-03-09T08:39:25;10.17;;;4.63;;
6693;SDS011;3384;42.628;23.380;2023-03-09T08:41:51;3.43;;;3.17;;
6693;SDS011;3384;42.628;23.380;2023-03-09T08:44:18;5.73;;;3.47;;
6693;SDS011;3384;42.628;23.380;2023-03-09T08:46:46;9.23;;;4.57;;
6693;SDS011;3384;42.628;23.380;2023-03-09T08:49:12;4.23;;;3.10;;
6693;SDS011;3384;42.628;23.380;2023-03-09T08:51:39;3.23;;;3.03;;
6693;SDS011;3384;42.628;23.380;2023-03-09T08:54:05;12.77;;;3.63;;
6693;SDS011;3384;42.628;23.380;2023-03-09T08:56:32;22.13;;;3.40;;
6693;SDS011;3384;42.628;23.380;2023-03-09T08:58:59;2.43;;;2.23;;
6693;SDS011;3384;42.628;23.380;2023-03-09T09:01:25;9.00;;;3.00;;
6693;SDS011;3384;42.628;23.380;2023-03-09T09:03:54;2.90;;;2.43;;
6693;SDS011;3384;42.628;23.380;2023-03-09T09:06:20;7.60;;;2.70;;
6693;SDS011;3384;42.628;23.380;2023-03-09T09:08:47;5.83;;;3.83;;
6693;SDS011;3384;42.628;23.380;2023-03-09T09:11:14;5.70;;;3.10;;
6693;SDS011;3384;42.628;23.380;2023-03-09T09:13:41;4.03;;;2.30;;
6693;SDS011;3384;42.628;23.380;2023-03-09T09:16:09;2.57;;;2.47;;
6693;SDS011;3384;42.628;23.380;2023-03-09T09:18:35;3.03;;;2.23;;
6693;SDS011;3384;42.628;23.380;2023-03-09T09:21:03;5.13;;;2.40;;
6693;SDS011;3384;42.628;23.380;2023-03-09T09:23:33;2.77;;;2.57;;
6693;SDS011;3384;42.628;23.380;2023-03-09T09:25:59;27.50;;;2.93;;
6693;SDS011;3384;42.628;23.380;2023-03-09T09:28:26;7.60;;;3.13;;
6693;SDS011;3384;42.628;23.380;2023-03-09T09:30:53;7.27;;;3.50;;
6693;SDS011;3384;42.628;23.380;2023-03-09T09:39:26;2.13;;;2.03;;
6693;SDS011;3384;42.628;23.380;2023-03-09T09:41:53;2.90;;;2.60;;
6693;SDS011;3384;42.628;23.380;2023-03-09T09:44:21;4.50;;;1.97;;
6693;SDS011;3384;42.628;23.380;2023-03-09T09:46:49;4.80;;;2.60;;
6693;SDS011;3384;42.628;23.380;2023-03-09T09:49:17;4.40;;;2.53;;
6693;SDS011;3384;42.628;23.380;2023-03-09T09:51:48;2.93;;;2.80;;
6693;SDS011;3384;42.628;23.380;2023-03-09T09:54:20;2.53;;;2.33;;
6693;SDS011;3384;42.628;23.380;2023-03-09T09:56:51;4.83;;;2.17;;
6693;SDS011;3384;42.628;23.380;2023-03-09T09:59:19;4.17;;;2.30;;
6693;SDS011;3384;42.628;23.380;2023-03-09T10:01:51;4.77;;;2.40;;
6693;SDS011;3384;42.628;23.380;2023-03-09T10:04:21;6.60;;;3.97;;
6693;SDS011;3384;42.628;23.380;2023-03-09T10:06:50;4.40;;;2.30;;
6693;SDS011;3384;42.628;23.380;2023-03-09T10:09:19;2.13;;;2.03;;
6693;SDS011;3384;42.628;23.380;2023-03-09T10:11:48;2.57;;;2.20;;
6693;SDS011;3384;42.628;23.380;2023-03-09T10:14:19;4.40;;;2.27;;
6693;SDS011;3384;42.628;23.380;2023-03-09T10:16:47;2.73;;;2.53;;
6693;SDS011;3384;42.628;23.380;2023-03-09T10:19:15;12.27;;;3.27;;
6693;SDS011;3384;42.628;23.380;2023-03-09T10:21:44;3.10;;;2.80;;
6693;SDS011;3384;42.628;23.380;2023-03-09T10:24:16;4.93;;;2.53;;
6693;SDS011;3384;42.628;23.380;2023-03-09T10:26:46;7.80;;;1.97;;
6693;SDS011;3384;42.628;23.380;2023-03-09T10:29:17;4.67;;;2.70;;
6693;SDS011;3384;42.628;23.380;2023-03-09T10:31:49;6.50;;;1.87;;
6693;SDS011;3384;42.628;23.380;2023-03-09T10:34:17;3.03;;;2.03;;
6693;SDS011;3384;42.628;23.380;2023-03-09T10:36:49;2.00;;;1.90;;
6693;SDS011;3384;42.628;23.380;2023-03-09T10:39:20;10.33;;;1.53;;
6693;SDS011;3384;42.628;23.380;2023-03-09T10:41:47;1.70;;;1.60;;
6693;SDS011;3384;42.628;23.380;2023-03-09T10:44:14;1.50;;;1.40;;
6693;SDS011;3384;42.628;23.380;2023-03-09T10:46:56;1.87;;;1.77;;
6693;SDS011;3384;42.628;23.380;2023-03-09T10:49:23;1.63;;;1.53;;
6693;SDS011;3384;42.628;23.380;2023-03-09T10:51:54;2.60;;;1.20;;
6693;SDS011;3384;42.628;23.380;2023-03-09T10:54:22;1.30;;;1.23;;
6693;SDS011;3384;42.628;23.380;2023-03-09T10:56:49;3.10;;;1.67;;
6693;SDS011;3384;42.628;23.380;2023-03-09T10:59:17;1.70;;;1.57;;
6693;SDS011;3384;42.628;23.380;2023-03-09T11:01:45;3.00;;;1.50;;
6693;SDS011;3384;42.628;23.380;2023-03-09T11:10:32;2.93;;;1.23;;
6693;SDS011;3384;42.628;23.380;2023-03-09T11:13:00;1.10;;;1.00;;
6693;SDS011;3384;42.628;23.380;2023-03-09T11:15:28;1.47;;;1.37;;
6693;SDS011;3384;42.628;23.380;2023-03-09T11:17:55;3.50;;;0.97;;
6693;SDS011;3384;42.628;23.380;2023-03-09T11:20:32;5.43;;;1.40;;
6693;SDS011;3384;42.628;23.380;2023-03-09T11:26:05;4.10;;;0.93;;
6693;SDS011;3384;42.628;23.380;2023-03-09T11:37:36;0.97;;;0.93;;
6693;SDS011;3384;42.628;23.380;2023-03-09T11:43:13;2.13;;;2.03;;
6693;SDS011;3384;42.628;23.380;2023-03-09T11:49:03;1.87;;;1.33;;
6693;SDS011;3384;42.628;23.380;2023-03-09T11:54:45;2.80;;;0.80;;
6693;SDS011;3384;42.628;23.380;2023-03-09T12:00:18;1.13;;;0.80;;
6693;SDS011;3384;42.628;23.380;2023-03-09T12:02:47;1.03;;;0.80;;
6693;SDS011;3384;42.628;23.380;2023-03-09T12:05:21;1.07;;;1.07;;
6693;SDS011;3384;42.628;23.380;2023-03-09T12:07:50;1.20;;;1.10;;
6693;SDS011;3384;42.628;23.380;2023-03-09T12:13:45;0.60;;;0.60;;
6693;SDS011;3384;42.628;23.380;2023-03-09T12:16:15;1.73;;;1.17;;
6693;SDS011;3384;42.628;23.380;2023-03-09T12:18:46;2.87;;;1.00;;
6693;SDS011;3384;42.628;23.380;2023-03-09T12:21:39;1.37;;;1.30;;
6693;SDS011;3384;42.628;23.380;2023-03-09T12:51:19;6.77;;;1.60;;
6693;SDS011;3384;42.628;23.380;2023-03-09T12:54:29;1.83;;;1.10;;
6693;SDS011;3384;42.628;23.380;2023-03-09T13:02:48;1.80;;;1.27;;
6693;SDS011;3384;42.628;23.380;2023-03-09T13:05:24;3.00;;;1.20;;
6693;SDS011;3384;42.628;23.380;2023-03-09T13:08:15;1.20;;;1.10;;
6693;SDS011;3384;42.628;23.380;2023-03-09T13:10:43;4.13;;;1.77;;
6693;SDS011;3384;42.628;23.380;2023-03-09T13:21:38;0.93;;;0.93;;
6693;SDS011;3384;42.628;23.380;2023-03-09T13:24:10;4.90;;;1.60;;
6693;SDS011;3384;42.628;23.380;2023-03-09T13:26:39;2.63;;;1.40;;
6693;SDS011;3384;42.628;23.380;2023-03-09T13:29:07;2.03;;;1.30;;
6693;SDS011;3384;42.628;23.380;2023-03-09T13:34:37;3.20;;;1.40;;
6693;SDS011;3384;42.628;23.380;2023-03-09T13:40:23;1.27;;;0.97;;
6693;SDS011;3384;42.628;23.380;2023-03-09T13:46:23;1.00;;;1.00;;
6693;SDS011;3384;42.628;23.380;2023-03-09T13:51:55;4.20;;;1.03;;
6693;SDS011;3384;42.628;23.380;2023-03-09T13:57:29;1.10;;;1.00;;
6693;SDS011;3384;42.628;23.380;2023-03-09T14:02:59;1.63;;;1.10;;
6693;SDS011;3384;42.628;23.380;2023-03-09T14:05:26;7.83;;;1.27;;
6693;SDS011;3384;42.628;23.380;2023-03-09T14:07:53;1.90;;;1.33;;
6693;SDS011;3384;42.628;23.380;2023-03-09T14:10:21;2.30;;;1.97;;
6693;SDS011;3384;42.628;23.380;2023-03-09T14:12:52;2.80;;;1.57;;
6693;SDS011;3384;42.628;23.380;2023-03-09T14:15:19;2.30;;;1.57;;
6693;SDS011;3384;42.628;23.380;2023-03-09T14:17:46;0.83;;;0.53;;
6693;SDS011;3384;42.628;23.380;2023-03-09T14:20:15;0.80;;;0.80;;
6693;SDS011;3384;42.628;23.380;2023-03-09T14:22:43;0.70;;;0.70;;
6693;SDS011;3384;42.628;23.380;2023-03-09T14:25:29;0.70;;;0.57;;
6693;SDS011;3384;42.628;23.380;2023-03-09T14:27:57;0.73;;;0.63;;
6693;SDS011;3384;42.628;23.380;2023-03-09T14:30:34;1.10;;;0.90;;
6693;SDS011;3384;42.628;23.380;2023-03-09T14:33:24;0.60;;;0.60;;
6693;SDS011;3384;42.628;23.380;2023-03-09T14:38:22;0.70;;;0.70;;
6693;SDS011;3384;42.628;23.380;2023-03-09T14:40:59;1.83;;;0.77;;
6693;SDS011;3384;42.628;23.380;2023-03-09T14:46:35;0.80;;;0.70;;
6693;SDS011;3384;42.628;23.380;2023-03-09T14:49:01;8.73;;;1.60;;
6693;SDS011;3384;42.628;23.380;2023-03-09T14:54:37;1.40;;;1.30;;
6693;SDS011;3384;42.628;23.380;2023-03-09T15:00:12;0.90;;;0.73;;
6693;SDS011;3384;42.628;23.380;2023-03-09T15:02:40;4.33;;;1.10;;
6693;SDS011;3384;42.628;23.380;2023-03-09T15:05:11;1.73;;;0.70;;
6693;SDS011;3384;42.628;23.380;2023-03-09T15:07:38;5.03;;;1.33;;
6693;SDS011;3384;42.628;23.380;2023-03-09T15:10:05;2.57;;;1.90;;
6693;SDS011;3384;42.628;23.380;2023-03-09T15:12:32;1.20;;;1.10;;
6693;SDS011;3384;42.628;23.380;2023-03-09T15:15:18;1.33;;;1.23;;
6693;SDS011;3384;42.628;23.380;2023-03-09T15:23:54;1.30;;;1.13;;
6693;SDS011;3384;42.628;23.380;2023-03-09T15:26:21;2.73;;;2.07;;
6693;SDS011;3384;42.628;23.380;2023-03-09T15:28:47;1.47;;;1.37;;
6693;SDS011;3384;42.628;23.380;2023-03-09T15:31:14;4.70;;;1.20;;
6693;SDS011;3384;42.628;23.380;2023-03-09T15:33:40;3.40;;;1.60;;
6693;SDS011;3384;42.628;23.380;2023-03-09T15:36:07;6.03;;;2.00;;
6693;SDS011;3384;42.628;23.380;2023-03-09T15:38:33;4.67;;;2.03;;
6693;SDS011;3384;42.628;23.380;2023-03-09T15:44:02;2.23;;;2.13;;
6693;SDS011;3384;42.628;23.380;2023-03-09T15:46:29;2.40;;;2.10;;
6693;SDS011;3384;42.628;23.380;2023-03-09T15:48:56;2.00;;;1.90;;
6693;SDS011;3384;42.628;23.380;2023-03-09T15:51:23;3.00;;;2.77;;
6693;SDS011;3384;42.628;23.380;2023-03-09T15:53:50;3.17;;;1.70;;
6693;SDS011;3384;42.628;23.380;2023-03-09T15:56:17;3.90;;;1.77;;
6693;SDS011;3384;42.628;23.380;2023-03-09T15:58:44;2.30;;;1.50;;
6693;SDS011;3384;42.628;23.380;2023-03-09T16:01:14;1.07;;;1.03;;
6693;SDS011;3384;42.628;23.380;2023-03-09T16:03:43;1.13;;;0.97;;
6693;SDS011;3384;42.628;23.380;2023-03-09T16:06:09;1.17;;;1.17;;
6693;SDS011;3384;42.628;23.380;2023-03-09T16:08:36;2.20;;;1.57;;
6693;SDS011;3384;42.628;23.380;2023-03-09T16:11:02;1.23;;;0.80;;
6693;SDS011;3384;42.628;23.380;2023-03-09T16:13:30;0.97;;;0.97;;
6693;SDS011;3384;42.628;23.380;2023-03-09T16:15:56;1.40;;;0.93;;
6693;SDS011;3384;42.628;23.380;2023-03-09T16:18:24;1.10;;;1.10;;
6693;SDS011;3384;42.628;23.380;2023-03-09T16:20:51;3.23;;;1.17;;
6693;SDS011;3384;42.628;23.380;2023-03-09T16:23:17;1.13;;;1.13;;
6693;SDS011;3384;42.628;23.380;2023-03-09T16:25:48;3.40;;;1.07;;
6693;SDS011;3384;42.628;23.380;2023-03-09T16:28:15;1.07;;;1.07;;
6693;SDS011;3384;42.628;23.380;2023-03-09T16:30:41;6.23;;;1.27;;
6693;SDS011;3384;42.628;23.380;2023-03-09T16:33:08;4.70;;;1.33;;
6693;SDS011;3384;42.628;23.380;2023-03-09T16:35:36;2.40;;;1.50;;
6693;SDS011;3384;42.628;23.380;2023-03-09T16:38:03;3.10;;;1.30;;
6693;SDS011;3384;42.628;23.380;2023-03-09T16:40:30;1.73;;;1.63;;
6693;SDS011;3384;42.628;23.380;2023-03-09T16:42:57;4.00;;;1.60;;
6693;SDS011;3384;42.628;23.380;2023-03-09T16:45:24;3.00;;;2.40;;
6693;SDS011;3384;42.628;23.380;2023-03-09T16:47:50;2.70;;;1.53;;
6693;SDS011;3384;42.628;23.380;2023-03-09T16:50:35;2.37;;;2.27;;
6693;SDS011;3384;42.628;23.380;2023-03-09T16:53:05;2.60;;;2.40;;
6693;SDS011;3384;42.628;23.380;2023-03-09T16:55:31;4.33;;;2.40;;
6693;SDS011;3384;42.628;23.380;2023-03-09T16:57:58;3.53;;;3.33;;
6693;SDS011;3384;42.628;23.380;2023-03-09T17:00:24;2.07;;;1.97;;
6693;SDS011;3384;42.628;23.380;2023-03-09T17:02:51;12.50;;;2.07;;
6693;SDS011;3384;42.628;23.380;2023-03-09T17:05:18;5.30;;;2.50;;
6693;SDS011;3384;42.628;23.380;2023-03-09T17:07:45;10.55;;;2.60;;
6693;SDS011;3384;42.628;23.380;2023-03-09T17:10:13;2.97;;;1.60;;
6693;SDS011;3384;42.628;23.380;2023-03-09T17:12:40;7.63;;;2.50;;
6693;SDS011;3384;42.628;23.380;2023-03-09T17:15:07;3.90;;;2.10;;
6693;SDS011;3384;42.628;23.380;2023-03-09T17:17:34;3.73;;;1.70;;
6693;SDS011;3384;42.628;23.380;2023-03-09T17:20:02;2.60;;;2.40;;
6693;SDS011;3384;42.628;23.380;2023-03-09T17:22:29;9.33;;;2.87;;
6693;SDS011;3384;42.628;23.380;2023-03-09T17:24:59;2.43;;;2.20;;
6693;SDS011;3384;42.628;23.380;2023-03-09T17:27:25;3.13;;;2.60;;
6693;SDS011;3384;42.628;23.380;2023-03-09T17:29:52;1.50;;;1.40;;
6693;SDS011;3384;42.628;23.380;2023-03-09T17:32:18;2.40;;;1.57;;
6693;SDS011;3384;42.628;23.380;2023-03-09T17:34:45;2.80;;;2.03;;
6693;SDS011;3384;42.628;23.380;2023-03-09T17:37:12;2.07;;;1.80;;
6693;SDS011;3384;42.628;23.380;2023-03-09T17:39:38;2.63;;;2.47;;
6693;SDS011;3384;42.628;23.380;2023-03-09T17:42:06;3.10;;;2.30;;
6693;SDS011;3384;42.628;23.380;2023-03-09T17:44:38;2.03;;;1.93;;
6693;SDS011;3384;42.628;23.380;2023-03-09T17:47:04;1.80;;;1.70;;
6693;SDS011;3384;42.628;23.380;2023-03-09T17:49:45;1.83;;;1.20;;
6693;SDS011;3384;42.628;23.380;2023-03-09T17:55:23;2.07;;;1.97;;
6693;SDS011;3384;42.628;23.380;2023-03-09T18:00:28;2.30;;;2.10;;
6693;SDS011;3384;42.628;23.380;2023-03-09T18:02:55;7.13;;;3.53;;
6693;SDS011;3384;42.628;23.380;2023-03-09T18:05:21;4.70;;;3.60;;
6693;SDS011;3384;42.628;23.380;2023-03-09T18:07:49;3.63;;;3.37;;
6693;SDS011;3384;42.628;23.380;2023-03-09T18:10:29;4.40;;;3.63;;
6693;SDS011;3384;42.628;23.380;2023-03-09T18:12:58;6.13;;;4.37;;
6693;SDS011;3384;42.628;23.380;2023-03-09T18:15:25;4.73;;;4.00;;
6693;SDS011;3384;42.628;23.380;2023-03-09T18:17:55;5.20;;;3.93;;
6693;SDS011;3384;42.628;23.380;2023-03-09T18:20:24;5.97;;;3.90;;
6693;SDS011;3384;42.628;23.380;2023-03-09T18:22:51;10.83;;;3.00;;
6693;SDS011;3384;42.628;23.380;2023-03-09T18:25:17;4.17;;;3.23;;
6693;SDS011;3384;42.628;23.380;2023-03-09T18:30:47;6.40;;;3.70;;
6693;SDS011;3384;42.628;23.380;2023-03-09T18:33:15;11.03;;;5.43;;
6693;SDS011;3384;42.628;23.380;2023-03-09T18:35:42;4.33;;;2.83;;
6693;SDS011;3384;42.628;23.380;2023-03-09T18:38:09;2.80;;;2.70;;
6693;SDS011;3384;42.628;23.380;2023-03-09T18:40:35;5.97;;;3.93;;
6693;SDS011;3384;42.628;23.380;2023-03-09T18:43:02;3.60;;;3.30;;
6693;SDS011;3384;42.628;23.380;2023-03-09T18:45:29;3.70;;;3.50;;
6693;SDS011;3384;42.628;23.380;2023-03-09T18:47:56;3.93;;;3.73;;
6693;SDS011;3384;42.628;23.380;2023-03-09T18:50:24;5.77;;;4.17;;
6693;SDS011;3384;42.628;23.380;2023-03-09T18:52:51;5.43;;;3.87;;
6693;SDS011;3384;42.628;23.380;2023-03-09T18:55:18;9.73;;;5.30;;
6693;SDS011;3384;42.628;23.380;2023-03-09T18:57:44;9.33;;;4.83;;
6693;SDS011;3384;42.628;23.380;2023-03-09T19:00:12;10.53;;;6.20;;
6693;SDS011;3384;42.628;23.380;2023-03-09T19:02:39;20.53;;;5.80;;
6693;SDS011;3384;42.628;23.380;2023-03-09T19:05:06;6.27;;;5.77;;
6693;SDS011;3384;42.628;23.380;2023-03-09T19:07:34;11.03;;;5.70;;
6693;SDS011;3384;42.628;23.380;2023-03-09T19:10:01;7.70;;;5.60;;
6693;SDS011;3384;42.628;23.380;2023-03-09T19:12:27;6.23;;;5.30;;
6693;SDS011;3384;42.628;23.380;2023-03-09T19:14:54;6.57;;;6.00;;
6693;SDS011;3384;42.628;23.380;2023-03-09T19:17:21;11.73;;;6.03;;
6693;SDS011;3384;42.628;23.380;2023-03-09T19:19:48;8.00;;;6.70;;
6693;SDS011;3384;42.628;23.380;2023-03-09T19:22:14;13.70;;;7.07;;
6693;SDS011;3384;42.628;23.380;2023-03-09T19:24:42;11.13;;;7.73;;
6693;SDS011;3384;42.628;23.380;2023-03-09T19:27:09;13.80;;;7.70;;
6693;SDS011;3384;42.628;23.380;2023-03-09T19:29:36;18.90;;;8.20;;
6693;SDS011;3384;42.628;23.380;2023-03-09T19:32:02;12.00;;;6.50;;
6693;SDS011;3384;42.628;23.380;2023-03-09T19:34:29;10.03;;;6.20;;
6693;SDS011;3384;42.628;23.380;2023-03-09T19:36:55;7.10;;;6.10;;
6693;SDS011;3384;42.628;23.380;2023-03-09T19:39:22;28.33;;;7.10;;
6693;SDS011;3384;42.628;23.380;2023-03-09T19:41:53;9.60;;;7.57;;
6693;SDS011;3384;42.628;23.380;2023-03-09T19:44:20;7.00;;;5.90;;
6693;SDS011;3384;42.628;23.380;2023-03-09T19:46:46;8.70;;;5.00;;
6693;SDS011;3384;42.628;23.380;2023-03-09T19:49:13;6.17;;;5.50;;
6693;SDS011;3384;42.628;23.380;2023-03-09T19:51:40;6.03;;;4.30;;
6693;SDS011;3384;42.628;23.380;2023-03-09T19:54:07;7.80;;;7.00;;
6693;SDS011;3384;42.628;23.380;2023-03-09T19:56:38;10.53;;;7.23;;
6693;SDS011;3384;42.628;23.380;2023-03-09T19:59:07;19.77;;;9.10;;
6693;SDS011;3384;42.628;23.380;2023-03-09T20:01:34;5.93;;;5.53;;
6693;SDS011;3384;42.628;23.380;2023-03-09T20:04:02;6.00;;;5.07;;
6693;SDS011;3384;42.628;23.380;2023-03-09T20:06:29;10.90;;;6.50;;
6693;SDS011;3384;42.628;23.380;2023-03-09T20:08:57;6.93;;;5.27;;
6693;SDS011;3384;42.628;23.380;2023-03-09T20:11:38;7.33;;;5.30;;
6693;SDS011;3384;42.628;23.380;2023-03-09T20:14:06;8.47;;;5.07;;
6693;SDS011;3384;42.628;23.380;2023-03-09T20:16:34;4.73;;;4.30;;
6693;SDS011;3384;42.628;23.380;2023-03-09T20:19:01;5.57;;;4.37;;
6693;SDS011;3384;42.628;23.380;2023-03-09T20:21:27;4.70;;;4.30;;
6693;SDS011;3384;42.628;23.380;2023-03-09T20:23:54;3.83;;;3.53;;
6693;SDS011;3384;42.628;23.380;2023-03-09T20:26:22;5.00;;;2.83;;
6693;SDS011;3384;42.628;23.380;2023-03-09T20:28:49;5.40;;;3.50;;
6693;SDS011;3384;42.628;23.380;2023-03-09T20:31:18;4.00;;;3.80;;
6693;SDS011;3384;42.628;23.380;2023-03-09T20:33:45;5.83;;;2.97;;
6693;SDS011;3384;42.628;23.380;2023-03-09T20:36:11;5.50;;;3.23;;
6693;SDS011;3384;42.628;23.380;2023-03-09T20:38:38;2.97;;;2.87;;
6693;SDS011;3384;42.628;23.380;2023-03-09T20:41:05;3.13;;;2.93;;
6693;SDS011;3384;42.628;23.380;2023-03-09T20:43:32;4.37;;;3.93;;
6693;SDS011;3384;42.628;23.380;2023-03-09T20:46:00;6.43;;;4.50;;
6693;SDS011;3384;42.628;23.380;2023-03-09T20:48:29;5.57;;;3.93;;
6693;SDS011;3384;42.628;23.380;2023-03-09T20:51:16;9.03;;;4.87;;
6693;SDS011;3384;42.628;23.380;2023-03-09T20:53:42;5.57;;;4.50;;
6693;SDS011;3384;42.628;23.380;2023-03-09T20:56:10;3.37;;;2.17;;
6693;SDS011;3384;42.628;23.380;2023-03-09T20:58:36;6.97;;;3.37;;
6693;SDS011;3384;42.628;23.380;2023-03-09T21:01:03;3.07;;;1.47;;
6693;SDS011;3384;42.628;23.380;2023-03-09T21:03:31;2.30;;;2.13;;
6693;SDS011;3384;42.628;23.380;2023-03-09T21:06:03;2.17;;;2.07;;
6693;SDS011;3384;42.628;23.380;2023-03-09T21:08:29;2.00;;;1.90;;
6693;SDS011;3384;42.628;23.380;2023-03-09T21:10:56;2.50;;;2.40;;
6693;SDS011;3384;42.628;23.380;2023-03-09T21:13:22;3.73;;;3.13;;
6693;SDS011;3384;42.628;23.380;2023-03-09T21:15:49;6.17;;;4.33;;
6693;SDS011;3384;42.628;23.380;2023-03-09T21:18:16;4.97;;;2.30;;
6693;SDS011;3384;42.628;23.380;2023-03-09T21:20:44;1.60;;;1.50;;
6693;SDS011;3384;42.628;23.380;2023-03-09T21:23:11;1.20;;;1.10;;
6693;SDS011;3384;42.628;23.380;2023-03-09T21:28:40;4.03;;;3.40;;
6693;SDS011;3384;42.628;23.380;2023-03-09T21:31:07;4.47;;;4.17;;
6693;SDS011;3384;42.628;23.380;2023-03-09T21:33:34;9.47;;;5.97;;
6693;SDS011;3384;42.628;23.380;2023-03-09T21:36:02;8.37;;;4.57;;
6693;SDS011;3384;42.628;23.380;2023-03-09T21:38:29;4.80;;;4.27;;
6693;SDS011;3384;42.628;23.380;2023-03-09T21:40:56;4.23;;;3.90;;
6693;SDS011;3384;42.628;23.380;2023-03-09T21:43:24;5.07;;;4.57;;
6693;SDS011;3384;42.628;23.380;2023-03-09T21:45:51;8.70;;;3.90;;
6693;SDS011;3384;42.628;23.380;2023-03-09T21:48:18;5.03;;;4.63;;
6693;SDS011;3384;42.628;23.380;2023-03-09T21:50:44;7.00;;;4.40;;
6693;SDS011;3384;42.628;23.380;2023-03-09T21:53:12;4.53;;;3.73;;
6693;SDS011;3384;42.628;23.380;2023-03-09T21:55:39;6.83;;;5.10;;